sensor_id;sensor_type;location;lat;lon;timestamp;temperature;humidity
4757;DHT22;2392;52.578;13.426;2022-12-18T00:01:01;-3.40;99.90
4757;DHT22;2392;52.578;13.426;2022-12-18T00:03:32;-3.50;99.90
4757;DHT22;2392;52.578;13.426;2022-12-18T00:05:59;-3.50;99.90
4757;DHT22;2392;52.578;13.426;2022-12-18T00:08:26;-3.60;99.90
4757;DHT22;2392;52.578;13.426;2022-12-18T00:10:53;-3.60;99.90
4757;DHT22;2392;52.578;13.426;2022-12-18T00:13:20;-3.60;99.90
4757;DHT22;2392;52.578;13.426;2022-12-18T00:15:48;-3.60;99.90
4757;DHT22;2392;52.578;13.426;2022-12-18T00:18:15;-3.50;99.90
4757;DHT22;2392;52.578;13.426;2022-12-18T00:20:42;-3.50;99.90
4757;DHT22;2392;52.578;13.426;2022-12-18T00:23:09;-3.40;99.90
4757;DHT22;2392;52.578;13.426;2022-12-18T00:25:36;-3.40;99.90
4757;DHT22;2392;52.578;13.426;2022-12-18T00:28:04;-3.40;99.90
4757;DHT22;2392;52.578;13.426;2022-12-18T00:30:31;-3.40;99.90
4757;DHT22;2392;52.578;13.426;2022-12-18T00:32:59;-3.30;99.90
4757;DHT22;2392;52.578;13.426;2022-12-18T00:35:26;-3.40;99.90
4757;DHT22;2392;52.578;13.426;2022-12-18T00:37:53;-3.40;99.90
4757;DHT22;2392;52.578;13.426;2022-12-18T00:40:22;-3.30;99.90
4757;DHT22;2392;52.578;13.426;2022-12-18T00:42:49;-3.40;99.90
4757;DHT22;2392;52.578;13.426;2022-12-18T00:45:22;-3.50;99.90
4757;DHT22;2392;52.578;13.426;2022-12-18T00:47:51;-3.50;99.90
4757;DHT22;2392;52.578;13.426;2022-12-18T00:50:20;-3.50;99.90
4757;DHT22;2392;52.578;13.426;2022-12-18T00:52:48;-3.60;99.90
4757;DHT22;2392;52.578;13.426;2022-12-18T00:55:15;-3.60;99.90
4757;DHT22;2392;52.578;13.426;2022-12-18T00:57:42;-3.60;99.90
4757;DHT22;2392;52.578;13.426;2022-12-18T01:00:11;-3.60;99.90
4757;DHT22;2392;52.578;13.426;2022-12-18T01:02:40;-3.60;99.90
4757;DHT22;2392;52.578;13.426;2022-12-18T01:05:07;-3.60;99.90
4757;DHT22;2392;52.578;13.426;2022-12-18T01:07:36;-3.70;99.90
4757;DHT22;2392;52.578;13.426;2022-12-18T01:10:04;-3.60;99.90
4757;DHT22;2392;52.578;13.426;2022-12-18T01:12:32;-3.60;99.90
4757;DHT22;2392;52.578;13.426;2022-12-18T01:14:59;-3.60;99.90
4757;DHT22;2392;52.578;13.426;2022-12-18T01:17:26;-3.60;99.90
4757;DHT22;2392;52.578;13.426;2022-12-18T01:19:53;-3.60;99.90
4757;DHT22;2392;52.578;13.426;2022-12-18T01:22:20;-3.60;99.90
4757;DHT22;2392;52.578;13.426;2022-12-18T01:24:49;-3.60;99.90
4757;DHT22;2392;52.578;13.426;2022-12-18T01:27:16;-3.60;99.90
4757;DHT22;2392;52.578;13.426;2022-12-18T01:29:43;-3.70;99.90
4757;DHT22;2392;52.578;13.426;2022-12-18T01:32:10;-3.70;99.90
4757;DHT22;2392;52.578;13.426;2022-12-18T01:34:38;-3.70;99.90
4757;DHT22;2392;52.578;13.426;2022-12-18T01:37:05;-3.80;99.90
4757;DHT22;2392;52.578;13.426;2022-12-18T01:39:32;-3.80;99.90
4757;DHT22;2392;52.578;13.426;2022-12-18T01:42:02;-3.80;99.90
4757;DHT22;2392;52.578;13.426;2022-12-18T01:44:55;-3.90;99.90
4757;DHT22;2392;52.578;13.426;2022-12-18T01:47:24;-4.00;99.90
4757;DHT22;2392;52.578;13.426;2022-12-18T01:49:53;-4.00;99.90
4757;DHT22;2392;52.578;13.426;2022-12-18T01:52:21;-4.00;99.90
4757;DHT22;2392;52.578;13.426;2022-12-18T01:54:49;-4.00;99.90
4757;DHT22;2392;52.578;13.426;2022-12-18T01:57:18;-4.00;99.90
4757;DHT22;2392;52.578;13.426;2022-12-18T01:59:47;-4.00;99.90
4757;DHT22;2392;52.578;13.426;2022-12-18T02:02:18;-4.00;99.90
4757;DHT22;2392;52.578;13.426;2022-12-18T02:04:45;-4.00;99.90
4757;DHT22;2392;52.578;13.426;2022-12-18T02:07:19;-4.00;99.90
4757;DHT22;2392;52.578;13.426;2022-12-18T02:09:54;-4.00;99.90
4757;DHT22;2392;52.578;13.426;2022-12-18T02:12:26;-4.00;99.90
4757;DHT22;2392;52.578;13.426;2022-12-18T02:15:03;-4.00;99.90
4757;DHT22;2392;52.578;13.426;2022-12-18T02:17:40;-4.00;99.90
4757;DHT22;2392;52.578;13.426;2022-12-18T02:20:14;-4.00;99.90
4757;DHT22;2392;52.578;13.426;2022-12-18T02:22:55;-4.00;99.90
4757;DHT22;2392;52.578;13.426;2022-12-18T02:25:54;-4.00;99.90
4757;DHT22;2392;52.578;13.426;2022-12-18T02:28:32;-4.00;99.90
4757;DHT22;2392;52.578;13.426;2022-12-18T02:31:07;-4.10;99.90
4757;DHT22;2392;52.578;13.426;2022-12-18T02:33:36;-4.20;99.90
4757;DHT22;2392;52.578;13.426;2022-12-18T02:36:06;-4.20;99.90
4757;DHT22;2392;52.578;13.426;2022-12-18T02:38:35;-4.30;99.90
4757;DHT22;2392;52.578;13.426;2022-12-18T02:41:13;-4.20;99.90
4757;DHT22;2392;52.578;13.426;2022-12-18T02:43:47;-4.20;99.90
4757;DHT22;2392;52.578;13.426;2022-12-18T02:46:27;-4.20;99.90
4757;DHT22;2392;52.578;13.426;2022-12-18T02:49:11;-4.20;99.90
4757;DHT22;2392;52.578;13.426;2022-12-18T02:51:47;-4.20;99.90
4757;DHT22;2392;52.578;13.426;2022-12-18T02:54:25;-4.20;99.90
4757;DHT22;2392;52.578;13.426;2022-12-18T02:57:05;-4.20;99.90
4757;DHT22;2392;52.578;13.426;2022-12-18T02:59:41;-4.20;99.90
4757;DHT22;2392;52.578;13.426;2022-12-18T03:02:17;-4.10;99.90
4757;DHT22;2392;52.578;13.426;2022-12-18T03:04:48;-4.10;99.90
4757;DHT22;2392;52.578;13.426;2022-12-18T03:07:23;-4.10;99.90
4757;DHT22;2392;52.578;13.426;2022-12-18T03:09:53;-4.10;99.90
4757;DHT22;2392;52.578;13.426;2022-12-18T03:12:27;-4.10;99.90
4757;DHT22;2392;52.578;13.426;2022-12-18T03:15:01;-4.10;99.90
4757;DHT22;2392;52.578;13.426;2022-12-18T03:17:31;-4.10;99.90
4757;DHT22;2392;52.578;13.426;2022-12-18T03:20:02;-4.00;99.90
4757;DHT22;2392;52.578;13.426;2022-12-18T03:22:33;-4.00;99.90
4757;DHT22;2392;52.578;13.426;2022-12-18T03:25:06;-4.10;99.90
4757;DHT22;2392;52.578;13.426;2022-12-18T03:27:39;-4.10;99.90
4757;DHT22;2392;52.578;13.426;2022-12-18T03:30:12;-4.10;99.90
4757;DHT22;2392;52.578;13.426;2022-12-18T03:32:44;-4.10;99.90
4757;DHT22;2392;52.578;13.426;2022-12-18T03:35:19;-4.00;99.90
4757;DHT22;2392;52.578;13.426;2022-12-18T03:37:47;-4.10;99.90
4757;DHT22;2392;52.578;13.426;2022-12-18T03:40:15;-4.10;99.90
4757;DHT22;2392;52.578;13.426;2022-12-18T03:42:48;-4.10;99.90
4757;DHT22;2392;52.578;13.426;2022-12-18T03:45:22;-4.10;99.90
4757;DHT22;2392;52.578;13.426;2022-12-18T03:47:58;-4.20;99.90
4757;DHT22;2392;52.578;13.426;2022-12-18T03:50:36;-4.20;99.90
4757;DHT22;2392;52.578;13.426;2022-12-18T03:53:17;-4.20;99.90
4757;DHT22;2392;52.578;13.426;2022-12-18T03:55:49;-4.20;99.90
4757;DHT22;2392;52.578;13.426;2022-12-18T03:58:22;-4.20;99.90
4757;DHT22;2392;52.578;13.426;2022-12-18T04:01:15;-4.30;99.90
4757;DHT22;2392;52.578;13.426;2022-12-18T04:03:44;-4.30;99.90
4757;DHT22;2392;52.578;13.426;2022-12-18T04:06:14;-4.30;99.90
4757;DHT22;2392;52.578;13.426;2022-12-18T04:08:43;-4.20;99.90
4757;DHT22;2392;52.578;13.426;2022-12-18T04:11:16;-4.20;99.90
4757;DHT22;2392;52.578;13.426;2022-12-18T04:13:46;-4.30;99.90
4757;DHT22;2392;52.578;13.426;2022-12-18T04:16:21;-4.30;99.90
4757;DHT22;2392;52.578;13.426;2022-12-18T04:18:52;-4.30;99.90
4757;DHT22;2392;52.578;13.426;2022-12-18T04:21:20;-4.30;99.90
4757;DHT22;2392;52.578;13.426;2022-12-18T04:23:49;-4.40;99.90
4757;DHT22;2392;52.578;13.426;2022-12-18T04:26:19;-4.30;99.90
4757;DHT22;2392;52.578;13.426;2022-12-18T04:28:58;-4.30;99.90
4757;DHT22;2392;52.578;13.426;2022-12-18T04:31:25;-4.30;99.90
4757;DHT22;2392;52.578;13.426;2022-12-18T04:33:52;-4.40;99.90
4757;DHT22;2392;52.578;13.426;2022-12-18T04:36:20;-4.30;99.90
4757;DHT22;2392;52.578;13.426;2022-12-18T04:38:47;-4.30;99.90
4757;DHT22;2392;52.578;13.426;2022-12-18T04:41:16;-4.30;99.90
4757;DHT22;2392;52.578;13.426;2022-12-18T04:43:46;-4.40;99.90
4757;DHT22;2392;52.578;13.426;2022-12-18T04:46:14;-4.50;99.90
4757;DHT22;2392;52.578;13.426;2022-12-18T04:48:41;-4.60;99.90
4757;DHT22;2392;52.578;13.426;2022-12-18T04:51:08;-4.60;99.90
4757;DHT22;2392;52.578;13.426;2022-12-18T04:53:35;-4.70;99.90
4757;DHT22;2392;52.578;13.426;2022-12-18T04:56:04;-4.70;99.90
4757;DHT22;2392;52.578;13.426;2022-12-18T04:58:31;-4.70;99.90
4757;DHT22;2392;52.578;13.426;2022-12-18T05:00:58;-4.70;99.90
4757;DHT22;2392;52.578;13.426;2022-12-18T05:03:27;-4.70;99.90
4757;DHT22;2392;52.578;13.426;2022-12-18T05:05:54;-4.80;99.90
4757;DHT22;2392;52.578;13.426;2022-12-18T05:08:21;-4.80;99.90
4757;DHT22;2392;52.578;13.426;2022-12-18T05:10:48;-4.80;99.90
4757;DHT22;2392;52.578;13.426;2022-12-18T05:13:15;-4.80;99.90
4757;DHT22;2392;52.578;13.426;2022-12-18T05:15:42;-4.80;99.90
4757;DHT22;2392;52.578;13.426;2022-12-18T05:18:09;-4.80;99.90
4757;DHT22;2392;52.578;13.426;2022-12-18T05:20:37;-4.70;99.90
4757;DHT22;2392;52.578;13.426;2022-12-18T05:23:04;-4.80;99.90
4757;DHT22;2392;52.578;13.426;2022-12-18T05:25:31;-4.80;99.90
4757;DHT22;2392;52.578;13.426;2022-12-18T05:27:58;-4.70;99.90
4757;DHT22;2392;52.578;13.426;2022-12-18T05:30:25;-4.70;99.90
4757;DHT22;2392;52.578;13.426;2022-12-18T05:32:53;-4.60;99.90
4757;DHT22;2392;52.578;13.426;2022-12-18T05:35:20;-4.60;99.90
4757;DHT22;2392;52.578;13.426;2022-12-18T05:37:48;-4.60;99.90
4757;DHT22;2392;52.578;13.426;2022-12-18T05:40:15;-4.60;99.90
4757;DHT22;2392;52.578;13.426;2022-12-18T05:42:42;-4.60;99.90
4757;DHT22;2392;52.578;13.426;2022-12-18T05:45:10;-4.60;99.90
4757;DHT22;2392;52.578;13.426;2022-12-18T05:47:36;-4.50;99.90
4757;DHT22;2392;52.578;13.426;2022-12-18T05:50:04;-4.50;99.90
4757;DHT22;2392;52.578;13.426;2022-12-18T05:52:32;-4.40;99.90
4757;DHT22;2392;52.578;13.426;2022-12-18T05:55:00;-4.40;99.90
4757;DHT22;2392;52.578;13.426;2022-12-18T05:57:27;-4.30;99.90
4757;DHT22;2392;52.578;13.426;2022-12-18T05:59:55;-4.40;99.90
4757;DHT22;2392;52.578;13.426;2022-12-18T06:02:22;-4.40;99.90
4757;DHT22;2392;52.578;13.426;2022-12-18T06:04:49;-4.40;99.90
4757;DHT22;2392;52.578;13.426;2022-12-18T06:07:17;-4.30;99.90
4757;DHT22;2392;52.578;13.426;2022-12-18T06:09:44;-4.30;99.90
4757;DHT22;2392;52.578;13.426;2022-12-18T06:12:12;-4.20;99.90
4757;DHT22;2392;52.578;13.426;2022-12-18T06:14:39;-4.20;99.90
4757;DHT22;2392;52.578;13.426;2022-12-18T06:17:06;-4.30;99.90
4757;DHT22;2392;52.578;13.426;2022-12-18T06:19:33;-4.30;99.90
4757;DHT22;2392;52.578;13.426;2022-12-18T06:22:00;-4.30;99.90
4757;DHT22;2392;52.578;13.426;2022-12-18T06:24:27;-4.30;99.90
4757;DHT22;2392;52.578;13.426;2022-12-18T06:26:54;-4.30;99.90
4757;DHT22;2392;52.578;13.426;2022-12-18T06:29:23;-4.30;99.90
4757;DHT22;2392;52.578;13.426;2022-12-18T06:31:50;-4.30;99.90
4757;DHT22;2392;52.578;13.426;2022-12-18T06:34:17;-4.40;99.90
4757;DHT22;2392;52.578;13.426;2022-12-18T06:36:44;-4.40;99.90
4757;DHT22;2392;52.578;13.426;2022-12-18T06:39:11;-4.50;99.90
4757;DHT22;2392;52.578;13.426;2022-12-18T06:41:38;-4.50;99.90
4757;DHT22;2392;52.578;13.426;2022-12-18T06:44:05;-4.50;99.90
4757;DHT22;2392;52.578;13.426;2022-12-18T06:46:33;-4.50;99.90
4757;DHT22;2392;52.578;13.426;2022-12-18T06:49:00;-4.40;99.90
4757;DHT22;2392;52.578;13.426;2022-12-18T06:51:27;-4.40;99.90
4757;DHT22;2392;52.578;13.426;2022-12-18T06:53:54;-4.40;99.90
4757;DHT22;2392;52.578;13.426;2022-12-18T06:56:21;-4.40;99.90
4757;DHT22;2392;52.578;13.426;2022-12-18T06:58:48;-4.30;99.90
4757;DHT22;2392;52.578;13.426;2022-12-18T07:01:15;-4.30;99.90
4757;DHT22;2392;52.578;13.426;2022-12-18T07:03:43;-4.30;99.90
4757;DHT22;2392;52.578;13.426;2022-12-18T07:06:16;-4.30;99.90
4757;DHT22;2392;52.578;13.426;2022-12-18T07:08:43;-4.30;99.90
4757;DHT22;2392;52.578;13.426;2022-12-18T07:11:10;-4.40;99.90
4757;DHT22;2392;52.578;13.426;2022-12-18T07:13:38;-4.40;99.90
4757;DHT22;2392;52.578;13.426;2022-12-18T07:16:07;-4.40;99.90
4757;DHT22;2392;52.578;13.426;2022-12-18T07:18:34;-4.50;99.90
4757;DHT22;2392;52.578;13.426;2022-12-18T07:21:05;-4.50;99.90
4757;DHT22;2392;52.578;13.426;2022-12-18T07:23:32;-4.50;99.90
4757;DHT22;2392;52.578;13.426;2022-12-18T07:26:01;-4.50;99.90
4757;DHT22;2392;52.578;13.426;2022-12-18T07:28:29;-4.40;99.90
4757;DHT22;2392;52.578;13.426;2022-12-18T07:30:56;-4.40;99.90
4757;DHT22;2392;52.578;13.426;2022-12-18T07:33:23;-4.40;99.90
4757;DHT22;2392;52.578;13.426;2022-12-18T07:35:50;-4.40;99.90
4757;DHT22;2392;52.578;13.426;2022-12-18T07:38:18;-4.40;99.90
4757;DHT22;2392;52.578;13.426;2022-12-18T07:40:45;-4.40;99.90
4757;DHT22;2392;52.578;13.426;2022-12-18T07:43:12;-4.40;99.90
4757;DHT22;2392;52.578;13.426;2022-12-18T07:45:39;-4.50;99.90
4757;DHT22;2392;52.578;13.426;2022-12-18T07:48:06;-4.50;99.90
4757;DHT22;2392;52.578;13.426;2022-12-18T07:50:33;-4.50;99.90
4757;DHT22;2392;52.578;13.426;2022-12-18T07:53:00;-4.40;99.90
4757;DHT22;2392;52.578;13.426;2022-12-18T07:55:30;-4.40;99.90
4757;DHT22;2392;52.578;13.426;2022-12-18T07:58:01;-4.40;99.90
4757;DHT22;2392;52.578;13.426;2022-12-18T08:00:28;-4.40;99.90
4757;DHT22;2392;52.578;13.426;2022-12-18T08:02:55;-4.40;99.90
4757;DHT22;2392;52.578;13.426;2022-12-18T08:05:22;-4.40;99.90
4757;DHT22;2392;52.578;13.426;2022-12-18T08:07:52;-4.40;99.90
4757;DHT22;2392;52.578;13.426;2022-12-18T08:10:19;-4.40;99.90
4757;DHT22;2392;52.578;13.426;2022-12-18T08:12:50;-4.40;99.90
4757;DHT22;2392;52.578;13.426;2022-12-18T08:15:17;-4.40;99.90
4757;DHT22;2392;52.578;13.426;2022-12-18T08:17:44;-4.30;99.90
4757;DHT22;2392;52.578;13.426;2022-12-18T08:20:11;-4.30;99.90
4757;DHT22;2392;52.578;13.426;2022-12-18T08:22:52;-4.20;99.90
4757;DHT22;2392;52.578;13.426;2022-12-18T08:25:19;-4.10;99.90
4757;DHT22;2392;52.578;13.426;2022-12-18T08:27:46;-4.10;99.90
4757;DHT22;2392;52.578;13.426;2022-12-18T08:30:15;-4.00;99.90
4757;DHT22;2392;52.578;13.426;2022-12-18T08:32:42;-4.00;99.90
4757;DHT22;2392;52.578;13.426;2022-12-18T08:35:09;-4.00;99.90
4757;DHT22;2392;52.578;13.426;2022-12-18T08:37:37;-4.00;99.90
4757;DHT22;2392;52.578;13.426;2022-12-18T08:40:06;-4.10;99.90
4757;DHT22;2392;52.578;13.426;2022-12-18T08:42:38;-4.20;99.90
4757;DHT22;2392;52.578;13.426;2022-12-18T08:45:24;-4.20;99.90
4757;DHT22;2392;52.578;13.426;2022-12-18T08:47:51;-4.20;99.90
4757;DHT22;2392;52.578;13.426;2022-12-18T08:50:21;-4.30;99.90
4757;DHT22;2392;52.578;13.426;2022-12-18T08:52:48;-4.30;99.90
4757;DHT22;2392;52.578;13.426;2022-12-18T08:55:16;-4.20;99.90
4757;DHT22;2392;52.578;13.426;2022-12-18T08:57:43;-4.30;99.90
4757;DHT22;2392;52.578;13.426;2022-12-18T09:00:11;-4.30;99.90
4757;DHT22;2392;52.578;13.426;2022-12-18T09:02:40;-4.30;99.90
4757;DHT22;2392;52.578;13.426;2022-12-18T09:05:08;-4.30;99.90
4757;DHT22;2392;52.578;13.426;2022-12-18T09:07:35;-4.30;99.90
4757;DHT22;2392;52.578;13.426;2022-12-18T09:10:05;-4.30;99.90
4757;DHT22;2392;52.578;13.426;2022-12-18T09:12:32;-4.20;99.90
4757;DHT22;2392;52.578;13.426;2022-12-18T09:14:59;-4.10;99.90
4757;DHT22;2392;52.578;13.426;2022-12-18T09:17:26;-4.10;99.90
4757;DHT22;2392;52.578;13.426;2022-12-18T09:19:55;-4.00;99.90
4757;DHT22;2392;52.578;13.426;2022-12-18T09:22:24;-4.00;99.90
4757;DHT22;2392;52.578;13.426;2022-12-18T09:24:51;-4.00;99.90
4757;DHT22;2392;52.578;13.426;2022-12-18T09:27:22;-3.90;99.90
4757;DHT22;2392;52.578;13.426;2022-12-18T09:29:49;-3.90;99.90
4757;DHT22;2392;52.578;13.426;2022-12-18T09:32:21;-3.80;99.90
4757;DHT22;2392;52.578;13.426;2022-12-18T09:34:48;-3.80;99.90
4757;DHT22;2392;52.578;13.426;2022-12-18T09:37:31;-3.80;99.90
4757;DHT22;2392;52.578;13.426;2022-12-18T09:40:01;-3.70;99.90
4757;DHT22;2392;52.578;13.426;2022-12-18T09:42:34;-3.70;99.90
4757;DHT22;2392;52.578;13.426;2022-12-18T09:45:12;-3.70;99.90
4757;DHT22;2392;52.578;13.426;2022-12-18T09:47:49;-3.60;99.90
4757;DHT22;2392;52.578;13.426;2022-12-18T09:50:24;-3.50;99.90
4757;DHT22;2392;52.578;13.426;2022-12-18T09:52:58;-3.50;99.90
4757;DHT22;2392;52.578;13.426;2022-12-18T09:55:31;-3.50;99.90
4757;DHT22;2392;52.578;13.426;2022-12-18T09:58:05;-3.50;99.90
4757;DHT22;2392;52.578;13.426;2022-12-18T10:00:36;-3.50;99.90
4757;DHT22;2392;52.578;13.426;2022-12-18T10:03:08;-3.50;99.90
4757;DHT22;2392;52.578;13.426;2022-12-18T10:05:40;-3.50;99.90
4757;DHT22;2392;52.578;13.426;2022-12-18T10:08:15;-3.40;99.90
4757;DHT22;2392;52.578;13.426;2022-12-18T10:10:49;-3.30;99.90
4757;DHT22;2392;52.578;13.426;2022-12-18T10:13:24;-3.20;99.90
4757;DHT22;2392;52.578;13.426;2022-12-18T10:16:06;-3.20;99.90
4757;DHT22;2392;52.578;13.426;2022-12-18T10:18:58;-3.10;99.90
4757;DHT22;2392;52.578;13.426;2022-12-18T10:21:31;-3.00;99.90
4757;DHT22;2392;52.578;13.426;2022-12-18T10:24:12;-2.90;99.90
4757;DHT22;2392;52.578;13.426;2022-12-18T10:26:44;-2.90;99.90
4757;DHT22;2392;52.578;13.426;2022-12-18T10:29:13;-2.80;99.90
4757;DHT22;2392;52.578;13.426;2022-12-18T10:31:40;-2.80;99.90
4757;DHT22;2392;52.578;13.426;2022-12-18T10:34:09;-2.80;99.90
4757;DHT22;2392;52.578;13.426;2022-12-18T10:36:41;-2.90;99.90
4757;DHT22;2392;52.578;13.426;2022-12-18T10:39:18;-2.90;99.90
4757;DHT22;2392;52.578;13.426;2022-12-18T10:41:46;-2.90;99.90
4757;DHT22;2392;52.578;13.426;2022-12-18T10:44:19;-2.80;99.90
4757;DHT22;2392;52.578;13.426;2022-12-18T10:46:55;-2.80;99.90
4757;DHT22;2392;52.578;13.426;2022-12-18T10:49:30;-2.80;99.90
4757;DHT22;2392;52.578;13.426;2022-12-18T10:52:07;-2.70;99.90
4757;DHT22;2392;52.578;13.426;2022-12-18T10:54:39;-2.70;99.90
4757;DHT22;2392;52.578;13.426;2022-12-18T10:57:17;-2.70;99.90
4757;DHT22;2392;52.578;13.426;2022-12-18T10:59:56;-2.70;99.90
4757;DHT22;2392;52.578;13.426;2022-12-18T11:02:28;-2.60;99.90
4757;DHT22;2392;52.578;13.426;2022-12-18T11:05:00;-2.60;99.90
4757;DHT22;2392;52.578;13.426;2022-12-18T11:07:47;-2.60;99.90
4757;DHT22;2392;52.578;13.426;2022-12-18T11:10:28;-2.50;99.90
4757;DHT22;2392;52.578;13.426;2022-12-18T11:13:12;-2.60;99.90
4757;DHT22;2392;52.578;13.426;2022-12-18T11:15:42;-2.60;99.90
4757;DHT22;2392;52.578;13.426;2022-12-18T11:18:17;-2.60;99.90
4757;DHT22;2392;52.578;13.426;2022-12-18T11:20:51;-2.60;99.90
4757;DHT22;2392;52.578;13.426;2022-12-18T11:23:19;-2.60;99.90
4757;DHT22;2392;52.578;13.426;2022-12-18T11:25:53;-2.70;99.90
4757;DHT22;2392;52.578;13.426;2022-12-18T11:28:46;-2.70;99.90
4757;DHT22;2392;52.578;13.426;2022-12-18T11:31:21;-2.80;99.90
4757;DHT22;2392;52.578;13.426;2022-12-18T11:33:59;-2.80;99.90
4757;DHT22;2392;52.578;13.426;2022-12-18T11:36:34;-2.70;99.90
4757;DHT22;2392;52.578;13.426;2022-12-18T11:39:09;-2.70;99.90
4757;DHT22;2392;52.578;13.426;2022-12-18T11:41:47;-2.70;99.90
4757;DHT22;2392;52.578;13.426;2022-12-18T11:44:40;-2.70;99.90
4757;DHT22;2392;52.578;13.426;2022-12-18T11:47:13;-2.80;99.90
4757;DHT22;2392;52.578;13.426;2022-12-18T11:49:42;-2.70;99.90
4757;DHT22;2392;52.578;13.426;2022-12-18T11:52:16;-2.60;99.90
4757;DHT22;2392;52.578;13.426;2022-12-18T11:54:45;-2.60;99.90
4757;DHT22;2392;52.578;13.426;2022-12-18T11:57:29;-2.60;99.90
4757;DHT22;2392;52.578;13.426;2022-12-18T12:00:09;-2.60;99.90
4757;DHT22;2392;52.578;13.426;2022-12-18T12:03:21;-2.60;99.90
4757;DHT22;2392;52.578;13.426;2022-12-18T12:06:02;-2.60;99.90
4757;DHT22;2392;52.578;13.426;2022-12-18T12:08:42;-2.60;99.90
4757;DHT22;2392;52.578;13.426;2022-12-18T12:11:18;-2.60;99.90
4757;DHT22;2392;52.578;13.426;2022-12-18T12:14:07;-2.60;99.90
4757;DHT22;2392;52.578;13.426;2022-12-18T12:16:42;-2.70;99.90
4757;DHT22;2392;52.578;13.426;2022-12-18T12:19:24;-2.70;99.90
4757;DHT22;2392;52.578;13.426;2022-12-18T12:22:02;-2.80;99.90
4757;DHT22;2392;52.578;13.426;2022-12-18T12:24:39;-2.70;99.90
4757;DHT22;2392;52.578;13.426;2022-12-18T12:27:18;-2.70;99.90
4757;DHT22;2392;52.578;13.426;2022-12-18T12:30:00;-2.70;99.90
4757;DHT22;2392;52.578;13.426;2022-12-18T12:32:43;-2.60;99.90
4757;DHT22;2392;52.578;13.426;2022-12-18T12:35:26;-2.60;99.90
4757;DHT22;2392;52.578;13.426;2022-12-18T12:38:05;-2.50;99.90
4757;DHT22;2392;52.578;13.426;2022-12-18T12:40:35;-2.40;99.90
4757;DHT22;2392;52.578;13.426;2022-12-18T12:43:10;-2.30;99.90
4757;DHT22;2392;52.578;13.426;2022-12-18T12:45:46;-2.30;99.90
4757;DHT22;2392;52.578;13.426;2022-12-18T12:48:20;-2.30;99.90
4757;DHT22;2392;52.578;13.426;2022-12-18T12:50:57;-2.30;99.90
4757;DHT22;2392;52.578;13.426;2022-12-18T12:53:29;-2.30;99.90
4757;DHT22;2392;52.578;13.426;2022-12-18T12:55:57;-2.30;99.90
4757;DHT22;2392;52.578;13.426;2022-12-18T12:58:31;-2.30;99.90
4757;DHT22;2392;52.578;13.426;2022-12-18T13:01:13;-2.30;99.90
4757;DHT22;2392;52.578;13.426;2022-12-18T13:03:55;-2.20;99.90
4757;DHT22;2392;52.578;13.426;2022-12-18T13:06:32;-2.20;99.90
4757;DHT22;2392;52.578;13.426;2022-12-18T13:09:06;-2.20;99.90
4757;DHT22;2392;52.578;13.426;2022-12-18T13:11:42;-2.20;99.90
4757;DHT22;2392;52.578;13.426;2022-12-18T13:14:30;-2.20;99.90
4757;DHT22;2392;52.578;13.426;2022-12-18T13:17:27;-2.30;99.90
4757;DHT22;2392;52.578;13.426;2022-12-18T13:20:12;-2.30;99.90
4757;DHT22;2392;52.578;13.426;2022-12-18T13:22:43;-2.20;99.90
4757;DHT22;2392;52.578;13.426;2022-12-18T13:25:33;-2.20;99.90
4757;DHT22;2392;52.578;13.426;2022-12-18T13:28:09;-2.20;99.90
4757;DHT22;2392;52.578;13.426;2022-12-18T13:30:53;-2.10;99.90
4757;DHT22;2392;52.578;13.426;2022-12-18T13:33:49;-2.00;99.90
4757;DHT22;2392;52.578;13.426;2022-12-18T13:36:28;-2.00;99.90
4757;DHT22;2392;52.578;13.426;2022-12-18T13:39:34;-2.00;99.90
4757;DHT22;2392;52.578;13.426;2022-12-18T13:45:42;-2.10;99.90
4757;DHT22;2392;52.578;13.426;2022-12-18T13:48:22;-2.10;99.90
4757;DHT22;2392;52.578;13.426;2022-12-18T13:50:58;-2.10;99.90
4757;DHT22;2392;52.578;13.426;2022-12-18T13:53:29;-2.20;99.90
4757;DHT22;2392;52.578;13.426;2022-12-18T13:55:58;-2.20;99.90
4757;DHT22;2392;52.578;13.426;2022-12-18T13:58:25;-2.20;99.90
4757;DHT22;2392;52.578;13.426;2022-12-18T14:00:52;-2.10;99.90
4757;DHT22;2392;52.578;13.426;2022-12-18T14:03:22;-2.20;99.90
4757;DHT22;2392;52.578;13.426;2022-12-18T14:05:59;-2.10;99.90
4757;DHT22;2392;52.578;13.426;2022-12-18T14:08:34;-2.10;99.90
4757;DHT22;2392;52.578;13.426;2022-12-18T14:11:03;-2.20;99.90
4757;DHT22;2392;52.578;13.426;2022-12-18T14:13:35;-2.20;99.90
4757;DHT22;2392;52.578;13.426;2022-12-18T14:16:04;-2.20;99.90
4757;DHT22;2392;52.578;13.426;2022-12-18T14:18:39;-2.30;99.90
4757;DHT22;2392;52.578;13.426;2022-12-18T14:21:18;-2.30;99.90
4757;DHT22;2392;52.578;13.426;2022-12-18T14:23:45;-2.40;99.90
4757;DHT22;2392;52.578;13.426;2022-12-18T14:26:24;-2.40;99.90
4757;DHT22;2392;52.578;13.426;2022-12-18T14:28:53;-2.40;99.90
4757;DHT22;2392;52.578;13.426;2022-12-18T14:31:22;-2.40;99.90
4757;DHT22;2392;52.578;13.426;2022-12-18T14:33:50;-2.40;99.90
4757;DHT22;2392;52.578;13.426;2022-12-18T14:36:20;-2.40;99.90
4757;DHT22;2392;52.578;13.426;2022-12-18T14:38:49;-2.40;99.90
4757;DHT22;2392;52.578;13.426;2022-12-18T14:41:18;-2.30;99.90
4757;DHT22;2392;52.578;13.426;2022-12-18T14:43:47;-2.30;99.90
4757;DHT22;2392;52.578;13.426;2022-12-18T14:46:33;-2.30;99.90
4757;DHT22;2392;52.578;13.426;2022-12-18T14:49:02;-2.30;99.90
4757;DHT22;2392;52.578;13.426;2022-12-18T14:51:32;-2.30;99.90
4757;DHT22;2392;52.578;13.426;2022-12-18T14:54:01;-2.30;99.90
4757;DHT22;2392;52.578;13.426;2022-12-18T14:56:30;-2.30;99.90
4757;DHT22;2392;52.578;13.426;2022-12-18T14:59:00;-2.30;99.90
4757;DHT22;2392;52.578;13.426;2022-12-18T15:01:29;-2.30;99.90
4757;DHT22;2392;52.578;13.426;2022-12-18T15:03:59;-2.30;99.90
4757;DHT22;2392;52.578;13.426;2022-12-18T15:06:33;-2.30;99.90
4757;DHT22;2392;52.578;13.426;2022-12-18T15:09:02;-2.40;99.90
4757;DHT22;2392;52.578;13.426;2022-12-18T15:11:35;-2.40;99.90
4757;DHT22;2392;52.578;13.426;2022-12-18T15:14:21;-2.50;99.90
4757;DHT22;2392;52.578;13.426;2022-12-18T15:16:51;-2.50;99.90
4757;DHT22;2392;52.578;13.426;2022-12-18T15:19:20;-2.50;99.90
4757;DHT22;2392;52.578;13.426;2022-12-18T15:21:49;-2.50;99.90
4757;DHT22;2392;52.578;13.426;2022-12-18T15:24:23;-2.50;99.90
4757;DHT22;2392;52.578;13.426;2022-12-18T15:26:51;-2.50;99.90
4757;DHT22;2392;52.578;13.426;2022-12-18T15:29:20;-2.40;99.90
4757;DHT22;2392;52.578;13.426;2022-12-18T15:31:59;-2.40;99.90
4757;DHT22;2392;52.578;13.426;2022-12-18T15:34:27;-2.40;99.90
4757;DHT22;2392;52.578;13.426;2022-12-18T15:36:56;-2.30;99.90
4757;DHT22;2392;52.578;13.426;2022-12-18T15:39:23;-2.40;99.90
4757;DHT22;2392;52.578;13.426;2022-12-18T15:41:50;-2.30;99.90
4757;DHT22;2392;52.578;13.426;2022-12-18T15:44:34;-2.30;99.90
4757;DHT22;2392;52.578;13.426;2022-12-18T15:47:02;-2.30;99.90
4757;DHT22;2392;52.578;13.426;2022-12-18T15:49:29;-2.40;99.90
4757;DHT22;2392;52.578;13.426;2022-12-18T15:51:59;-2.50;99.90
4757;DHT22;2392;52.578;13.426;2022-12-18T15:54:28;-2.60;99.90
4757;DHT22;2392;52.578;13.426;2022-12-18T15:57:13;-2.70;99.90
4757;DHT22;2392;52.578;13.426;2022-12-18T15:59:53;-2.70;99.90
4757;DHT22;2392;52.578;13.426;2022-12-18T16:02:22;-2.70;99.90
4757;DHT22;2392;52.578;13.426;2022-12-18T16:04:50;-2.70;99.90
4757;DHT22;2392;52.578;13.426;2022-12-18T16:07:19;-2.70;99.90
4757;DHT22;2392;52.578;13.426;2022-12-18T16:09:46;-2.60;99.90
4757;DHT22;2392;52.578;13.426;2022-12-18T16:12:16;-2.60;99.90
4757;DHT22;2392;52.578;13.426;2022-12-18T16:14:43;-2.60;99.90
4757;DHT22;2392;52.578;13.426;2022-12-18T16:17:12;-2.50;99.90